createdAt,value
2019-06-20T00:01:34.760Z,19.14
2019-06-20T00:04:00.907Z,19.11
2019-06-20T00:06:27.141Z,19.09
2019-06-20T00:08:53.245Z,19.05
2019-06-20T00:11:19.402Z,19.01
2019-06-20T00:13:45.415Z,18.98
2019-06-20T00:16:11.611Z,18.97
2019-06-20T00:18:37.651Z,18.94
2019-06-20T00:21:03.805Z,18.89
2019-06-20T00:23:29.804Z,18.90
2019-06-20T00:25:55.825Z,18.88
2019-06-20T00:28:21.933Z,18.86
2019-06-20T00:30:48.045Z,18.83
2019-06-20T00:33:14.167Z,18.79
2019-06-20T00:35:40.279Z,18.73
2019-06-20T00:38:06.299Z,18.70
2019-06-20T00:40:32.436Z,18.67
2019-06-20T00:42:58.551Z,18.63
2019-06-20T00:45:24.777Z,18.58
2019-06-20T00:47:50.926Z,18.53
2019-06-20T00:50:17.301Z,18.50
2019-06-20T00:52:43.416Z,18.48
2019-06-20T00:55:10.021Z,18.46
2019-06-20T00:57:36.043Z,18.44
2019-06-20T01:00:07.915Z,18.36
2019-06-20T01:02:33.965Z,18.36
2019-06-20T01:05:00.078Z,18.35
2019-06-20T01:07:26.329Z,18.32
2019-06-20T01:09:52.445Z,18.34
2019-06-20T01:12:18.753Z,18.32
2019-06-20T01:14:44.764Z,18.09
2019-06-20T01:17:10.877Z,18.00
2019-06-20T01:19:36.896Z,18.02
2019-06-20T01:22:03.117Z,18.07
2019-06-20T01:24:29.139Z,18.09
2019-06-20T01:26:55.250Z,18.11
2019-06-20T01:29:21.383Z,18.12
2019-06-20T01:31:47.488Z,18.11
2019-06-20T01:34:13.633Z,18.10
2019-06-20T01:36:39.853Z,18.09
2019-06-20T01:39:06.577Z,18.08
2019-06-20T01:41:32.687Z,18.07
2019-06-20T01:43:58.702Z,18.06
2019-06-20T01:46:24.706Z,18.07
2019-06-20T01:48:50.714Z,18.06
2019-06-20T01:51:16.841Z,18.03
2019-06-20T01:53:42.888Z,17.99
2019-06-20T01:56:08.939Z,17.96
2019-06-20T01:58:35.045Z,17.94
2019-06-20T02:01:01.151Z,17.91
2019-06-20T02:03:27.254Z,17.92
2019-06-20T02:05:53.391Z,17.91
2019-06-20T02:08:19.561Z,17.90
2019-06-20T02:10:45.730Z,17.90
2019-06-20T02:13:11.844Z,17.89
2019-06-20T02:15:38.037Z,17.89
2019-06-20T02:18:04.244Z,17.91
2019-06-20T02:20:33.942Z,17.88
2019-06-20T02:23:00.248Z,17.86
2019-06-20T02:25:26.678Z,17.84
2019-06-20T02:27:52.692Z,17.85
2019-06-20T02:30:18.812Z,17.85
2019-06-20T02:32:44.932Z,17.85
2019-06-20T02:35:11.162Z,17.84
2019-06-20T02:37:37.295Z,17.81
2019-06-20T02:40:05.190Z,17.82
2019-06-20T02:42:31.301Z,17.82
2019-06-20T02:44:57.317Z,17.81
2019-06-20T02:47:23.339Z,17.79
2019-06-20T02:49:49.442Z,17.78
2019-06-20T02:52:15.587Z,17.81
2019-06-20T02:54:41.688Z,17.79
2019-06-20T02:57:07.842Z,17.78
2019-06-20T02:59:33.943Z,17.77
2019-06-20T03:01:59.986Z,17.77
2019-06-20T03:04:26.094Z,17.78
2019-06-20T03:06:52.137Z,17.80
2019-06-20T03:09:18.267Z,17.78
2019-06-20T03:11:44.380Z,17.75
2019-06-20T03:14:10.511Z,17.75
2019-06-20T03:16:36.500Z,17.76
2019-06-20T03:19:02.811Z,17.79
2019-06-20T03:21:28.862Z,17.81
2019-06-20T03:23:54.857Z,17.81
2019-06-20T03:26:20.979Z,17.83
2019-06-20T03:28:47.094Z,17.84
2019-06-20T03:31:13.229Z,17.85
2019-06-20T03:33:39.341Z,17.86
2019-06-20T03:36:05.564Z,17.87
2019-06-20T03:38:31.652Z,17.87
2019-06-20T03:40:57.943Z,17.92
2019-06-20T03:43:24.045Z,17.93
2019-06-20T03:45:50.161Z,17.96
2019-06-20T03:48:16.287Z,17.96
2019-06-20T03:50:42.386Z,17.98
2019-06-20T03:53:08.394Z,17.94
2019-06-20T03:55:34.499Z,17.93
2019-06-20T03:58:01.028Z,17.98
2019-06-20T04:00:30.746Z,18.02
2019-06-20T04:02:56.892Z,18.05
2019-06-20T04:05:22.998Z,18.07
2019-06-20T04:07:49.052Z,17.98
2019-06-20T04:10:15.166Z,17.98
2019-06-20T04:12:41.277Z,18.02
2019-06-20T04:15:18.753Z,18.09
2019-06-20T04:17:35.419Z,18.08
2019-06-20T04:20:02.770Z,17.96
2019-06-20T04:22:28.760Z,17.97
2019-06-20T04:24:54.931Z,17.98
2019-06-20T04:27:21.094Z,18.05
2019-06-20T04:29:47.139Z,18.09
2019-06-20T04:32:13.179Z,18.08
2019-06-20T04:34:39.171Z,18.06
2019-06-20T04:37:05.072Z,18.04
2019-06-20T04:39:31.078Z,18.13
2019-06-20T04:41:57.188Z,18.21
2019-06-20T04:44:23.226Z,18.23
2019-06-20T04:46:56.780Z,18.23
2019-06-20T04:49:22.897Z,18.30
2019-06-20T04:51:48.969Z,18.37
2019-06-20T04:54:15.069Z,18.38
2019-06-20T04:56:41.112Z,18.42
2019-06-20T04:59:07.120Z,18.47
2019-06-20T05:01:33.236Z,18.55
2019-06-20T05:03:59.239Z,18.60
2019-06-20T05:06:25.346Z,18.62
2019-06-20T05:08:51.375Z,18.66
2019-06-20T05:11:17.505Z,18.71
2019-06-20T05:13:43.608Z,18.70
2019-06-20T05:16:09.678Z,18.70
2019-06-20T05:18:35.789Z,18.62
2019-06-20T05:21:01.800Z,18.57
2019-06-20T05:23:27.906Z,18.53
2019-06-20T05:25:54.019Z,18.58
2019-06-20T05:28:20.145Z,18.67
2019-06-20T05:30:46.254Z,18.75
2019-06-20T05:33:12.162Z,18.85
2019-06-20T05:35:38.274Z,18.91
2019-06-20T05:38:04.396Z,18.93
2019-06-20T05:40:30.616Z,18.96
2019-06-20T05:42:56.656Z,19.00
2019-06-20T05:45:23.927Z,19.06
2019-06-20T05:47:50.047Z,19.09
2019-06-20T05:50:16.252Z,19.11
2019-06-20T05:52:42.273Z,19.09
2019-06-20T05:55:08.587Z,19.12
2019-06-20T05:57:34.697Z,19.13
2019-06-20T06:00:00.967Z,19.15
2019-06-20T06:02:27.164Z,19.16
2019-06-20T06:04:53.279Z,19.18
2019-06-20T06:07:19.453Z,19.22
2019-06-20T06:09:45.762Z,19.21
2019-06-20T06:12:12.320Z,19.22
2019-06-20T06:14:38.330Z,19.18
2019-06-20T06:17:04.438Z,19.25
2019-06-20T06:19:30.557Z,19.30
2019-06-20T06:21:56.607Z,19.30
2019-06-20T06:24:22.733Z,19.26
2019-06-20T06:26:48.875Z,19.28
2019-06-20T06:29:14.982Z,19.31
2019-06-20T06:31:41.114Z,19.33
2019-06-20T06:34:07.135Z,19.33
2019-06-20T06:36:33.084Z,19.33
2019-06-20T06:38:59.103Z,19.35
2019-06-20T06:41:25.267Z,19.41
2019-06-20T06:43:51.432Z,19.43
2019-06-20T06:46:17.479Z,19.43
2019-06-20T06:48:43.589Z,19.45
2019-06-20T06:51:09.704Z,19.41
2019-06-20T06:53:35.813Z,19.42
2019-06-20T06:56:01.934Z,19.39
2019-06-20T06:58:28.038Z,19.49
2019-06-20T07:00:54.058Z,19.61
2019-06-20T07:03:20.164Z,19.69
2019-06-20T07:05:47.748Z,19.66
2019-06-20T07:08:13.991Z,19.66
2019-06-20T07:10:40.182Z,19.72
2019-06-20T07:13:06.289Z,19.83
2019-06-20T07:15:32.535Z,19.92
2019-06-20T07:17:58.675Z,19.98
2019-06-20T07:20:24.786Z,19.99
2019-06-20T07:22:51.329Z,20.00
2019-06-20T07:25:17.627Z,20.07
2019-06-20T07:27:45.718Z,20.14
2019-06-20T07:30:13.728Z,20.15
2019-06-20T07:32:39.744Z,20.18
2019-06-20T07:35:07.976Z,20.27
2019-06-20T07:37:34.084Z,20.28
2019-06-20T07:40:00.216Z,20.28
2019-06-20T07:42:26.239Z,20.34
2019-06-20T07:44:53.760Z,20.44
2019-06-20T07:47:19.855Z,20.52
2019-06-20T07:49:46.118Z,20.59
2019-06-20T07:52:12.227Z,20.68
2019-06-20T07:54:38.378Z,20.72
2019-06-20T07:57:04.489Z,20.77
2019-06-20T07:59:30.596Z,20.81
2019-06-20T08:01:56.709Z,20.91
2019-06-20T08:04:23.021Z,21.00
2019-06-20T08:06:49.131Z,21.18
2019-06-20T08:09:15.276Z,21.34
2019-06-20T08:11:43.518Z,21.48
2019-06-20T08:14:09.623Z,21.57
2019-06-20T08:16:35.759Z,21.63
2019-06-20T08:19:02.433Z,21.69
2019-06-20T08:21:28.688Z,21.74
2019-06-20T08:23:54.812Z,21.79
2019-06-20T08:26:21.379Z,21.84
2019-06-20T08:28:47.417Z,21.86
2019-06-20T08:31:13.637Z,21.90
2019-06-20T08:33:39.654Z,21.96
2019-06-20T08:36:06.665Z,21.99
2019-06-20T08:38:32.874Z,22.00
2019-06-20T08:41:00.136Z,22.05
2019-06-20T08:43:26.413Z,22.11
2019-06-20T08:45:52.474Z,22.15
2019-06-20T08:48:18.598Z,22.17
2019-06-20T08:50:44.726Z,22.19
2019-06-20T08:53:12.040Z,22.25
2019-06-20T08:55:38.349Z,22.32
2019-06-20T08:58:05.623Z,22.34
2019-06-20T09:00:34.683Z,22.34
2019-06-20T09:03:00.821Z,22.33
2019-06-20T09:05:30.492Z,22.37
2019-06-20T09:07:57.180Z,22.50
2019-06-20T09:10:27.410Z,22.56
2019-06-20T09:12:55.074Z,22.69
2019-06-20T09:15:21.559Z,22.77
2019-06-20T09:17:47.657Z,22.85
2019-06-20T09:20:14.377Z,22.94
2019-06-20T09:22:40.605Z,22.95
2019-06-20T09:25:08.272Z,22.97
2019-06-20T09:27:35.303Z,23.16
2019-06-20T09:30:03.458Z,23.23
2019-06-20T09:32:29.782Z,23.33
2019-06-20T09:34:56.567Z,23.41
2019-06-20T09:37:22.812Z,23.48
2019-06-20T09:39:48.749Z,23.52
2019-06-20T09:42:14.792Z,23.48
2019-06-20T09:44:40.806Z,23.51
2019-06-20T09:47:06.971Z,23.55
2019-06-20T09:49:33.007Z,23.58
2019-06-20T09:51:59.048Z,23.58
2019-06-20T09:54:25.130Z,23.56
2019-06-20T09:56:53.531Z,23.59
2019-06-20T09:59:27.509Z,23.60
2019-06-20T10:01:48.131Z,23.59
2019-06-20T10:04:15.055Z,23.64
2019-06-20T10:06:41.172Z,23.68
2019-06-20T10:09:07.712Z,23.71
2019-06-20T10:11:33.854Z,23.67
2019-06-20T10:13:59.925Z,23.73
2019-06-20T10:16:26.038Z,23.73
2019-06-20T10:18:52.204Z,23.74
2019-06-20T10:21:18.526Z,23.72
2019-06-20T10:23:46.021Z,23.77
2019-06-20T10:26:12.359Z,23.79
2019-06-20T10:28:38.277Z,23.77
2019-06-20T10:31:04.184Z,23.77
2019-06-20T10:33:30.311Z,23.81
2019-06-20T10:35:57.250Z,23.88
2019-06-20T10:38:23.448Z,23.82
2019-06-20T10:40:49.887Z,23.73
2019-06-20T10:43:16.119Z,23.75
2019-06-20T10:45:44.026Z,23.79
2019-06-20T10:48:10.351Z,23.79
2019-06-20T10:50:36.572Z,23.80
2019-06-20T10:53:03.107Z,23.87
2019-06-20T10:55:29.276Z,24.00
2019-06-20T10:57:55.290Z,24.02
2019-06-20T11:00:30.648Z,24.02
2019-06-20T11:02:52.146Z,23.99
2019-06-20T11:05:18.374Z,24.02
2019-06-20T11:07:45.631Z,24.13
2019-06-20T11:10:13.215Z,24.26
2019-06-20T11:12:45.577Z,24.34
2019-06-20T11:15:08.168Z,24.40
2019-06-20T11:17:34.315Z,24.46
2019-06-20T11:20:00.292Z,24.43
2019-06-20T11:22:26.324Z,24.46
2019-06-20T11:24:52.344Z,24.52
2019-06-20T11:27:18.497Z,24.59
2019-06-20T11:29:44.532Z,24.66
2019-06-20T11:32:10.578Z,24.70
2019-06-20T11:34:37.667Z,24.80
2019-06-20T11:37:04.446Z,24.88
2019-06-20T11:39:30.550Z,24.94
2019-06-20T11:41:56.607Z,25.01
2019-06-20T11:44:22.772Z,25.16
2019-06-20T11:46:48.799Z,25.24
2019-06-20T11:49:14.933Z,25.31
2019-06-20T11:51:41.922Z,25.39
2019-06-20T11:54:08.083Z,25.45
2019-06-20T11:56:34.195Z,25.56
2019-06-20T11:59:00.216Z,25.63
2019-06-20T12:01:32.831Z,25.64
2019-06-20T12:03:54.423Z,25.79
2019-06-20T12:06:20.346Z,25.90
2019-06-20T12:08:46.814Z,25.95
2019-06-20T12:11:13.053Z,26.12
2019-06-20T12:13:40.380Z,26.30
2019-06-20T12:16:06.653Z,26.27
2019-06-20T12:18:32.765Z,26.27
2019-06-20T12:20:58.873Z,26.32
2019-06-20T12:23:24.914Z,26.47
2019-06-20T12:25:51.036Z,26.50
2019-06-20T12:28:17.149Z,26.52
2019-06-20T12:30:43.926Z,26.58
2019-06-20T12:33:10.343Z,26.70
2019-06-20T12:35:37.850Z,26.70
2019-06-20T12:38:04.575Z,26.83
2019-06-20T12:40:30.896Z,27.03
2019-06-20T12:42:56.820Z,27.13
2019-06-20T12:45:23.036Z,27.06
2019-06-20T12:47:50.108Z,27.03
2019-06-20T12:50:16.994Z,27.04
2019-06-20T12:52:44.230Z,27.12
2019-06-20T12:55:11.495Z,27.27
2019-06-20T12:57:38.617Z,27.29
2019-06-20T13:00:07.988Z,27.27
2019-06-20T13:02:34.101Z,27.29
2019-06-20T13:05:00.115Z,27.45
2019-06-20T13:07:26.045Z,27.59
2019-06-20T13:09:52.056Z,27.73
2019-06-20T13:12:18.117Z,27.88
2019-06-20T13:14:45.647Z,27.77
2019-06-20T13:17:11.934Z,27.74
2019-06-20T13:19:39.139Z,27.90
2019-06-20T13:22:06.106Z,28.13
2019-06-20T13:24:32.205Z,28.00
2019-06-20T13:26:58.260Z,27.73
2019-06-20T13:29:24.165Z,27.46
2019-06-20T13:32:01.936Z,27.28
2019-06-20T13:34:17.900Z,27.31
2019-06-20T13:36:44.749Z,27.32
2019-06-20T13:39:10.978Z,27.29
2019-06-20T13:41:39.392Z,27.40
2019-06-20T13:44:05.091Z,27.36
2019-06-20T13:46:31.191Z,27.17
2019-06-20T13:48:57.291Z,26.81
2019-06-20T13:51:23.408Z,26.87
2019-06-20T13:53:50.571Z,27.00
2019-06-20T13:56:16.675Z,27.08
2019-06-20T13:58:42.548Z,27.11
2019-06-20T14:01:08.698Z,26.97
2019-06-20T14:03:34.608Z,26.70
2019-06-20T14:06:00.628Z,26.55
2019-06-20T14:08:26.759Z,26.54
2019-06-20T14:10:52.851Z,26.41
2019-06-20T14:13:20.267Z,26.45
2019-06-20T14:15:46.388Z,26.54
2019-06-20T14:18:12.406Z,26.61
2019-06-20T14:20:38.557Z,26.65
2019-06-20T14:23:04.672Z,26.59
2019-06-20T14:25:34.062Z,26.58
2019-06-20T14:27:58.735Z,26.57
2019-06-20T14:30:25.654Z,26.49
2019-06-20T14:32:51.661Z,26.41
2019-06-20T14:35:18.069Z,26.34
2019-06-20T14:37:45.701Z,26.25
2019-06-20T14:40:12.233Z,26.19
2019-06-20T14:42:38.394Z,26.11
2019-06-20T14:45:05.606Z,25.99
2019-06-20T14:47:31.742Z,25.85
2019-06-20T14:49:57.751Z,25.70
2019-06-20T14:52:23.805Z,25.37
2019-06-20T14:54:49.964Z,25.29
2019-06-20T14:57:16.099Z,25.25
2019-06-20T14:59:43.162Z,25.28
2019-06-20T15:02:10.229Z,25.26
2019-06-20T15:04:36.359Z,25.17
2019-06-20T15:07:02.514Z,25.11
2019-06-20T15:09:28.653Z,25.07
2019-06-20T15:11:55.229Z,25.07
2019-06-20T15:14:21.471Z,25.01
2019-06-20T15:16:48.329Z,24.96
2019-06-20T15:19:15.406Z,24.90
2019-06-20T15:21:41.523Z,24.59
2019-06-20T15:24:07.678Z,24.32
2019-06-20T15:26:33.696Z,24.08
2019-06-20T15:28:59.745Z,23.75
2019-06-20T15:31:25.976Z,23.61
2019-06-20T15:33:53.367Z,23.61
2019-06-20T15:36:19.523Z,23.61
2019-06-20T15:38:47.661Z,23.49
2019-06-20T15:41:13.588Z,23.43
2019-06-20T15:43:39.754Z,23.27
2019-06-20T15:46:05.903Z,23.08
2019-06-20T15:48:31.929Z,22.97
2019-06-20T15:50:58.066Z,22.89
2019-06-20T15:53:24.085Z,22.90
2019-06-20T15:55:50.202Z,22.80
2019-06-20T15:58:16.307Z,22.74
2019-06-20T16:00:42.443Z,22.60
2019-06-20T16:03:10.207Z,22.43
2019-06-20T16:05:36.531Z,22.43
2019-06-20T16:08:02.644Z,22.36
2019-06-20T16:10:28.778Z,22.34
2019-06-20T16:12:54.873Z,22.36
2019-06-20T16:15:21.423Z,22.39
2019-06-20T16:17:47.491Z,22.39
2019-06-20T16:20:14.199Z,22.36
2019-06-20T16:22:40.199Z,22.31
2019-06-20T16:25:07.639Z,22.26
2019-06-20T16:27:33.776Z,22.26
2019-06-20T16:29:59.777Z,22.28
2019-06-20T16:32:25.740Z,22.22
2019-06-20T16:34:52.105Z,22.26
2019-06-20T16:37:17.999Z,22.33
2019-06-20T16:39:44.093Z,22.32
2019-06-20T16:42:10.248Z,22.27
2019-06-20T16:44:36.346Z,22.24
2019-06-20T16:47:02.499Z,22.19
2019-06-20T16:49:28.778Z,22.14
2019-06-20T16:51:54.879Z,22.17
2019-06-20T16:54:20.931Z,22.15
2019-06-20T16:56:47.013Z,22.15
2019-06-20T16:59:14.322Z,22.11
2019-06-20T17:01:41.451Z,22.15
2019-06-20T17:04:07.620Z,22.16
2019-06-20T17:06:33.739Z,22.14
2019-06-20T17:08:59.862Z,22.05
2019-06-20T17:11:25.828Z,21.94
2019-06-20T17:13:53.784Z,21.82
2019-06-20T17:16:19.937Z,21.73
2019-06-20T17:18:46.047Z,21.68
2019-06-20T17:21:12.154Z,21.65
2019-06-20T17:23:38.801Z,21.59
2019-06-20T17:26:05.448Z,21.54
2019-06-20T17:28:31.358Z,21.48
2019-06-20T17:30:57.464Z,21.52
2019-06-20T17:33:23.828Z,21.62
2019-06-20T17:35:54.918Z,21.69
2019-06-20T17:38:20.876Z,21.72
2019-06-20T17:40:46.925Z,21.63
2019-06-20T17:43:13.045Z,21.47
2019-06-20T17:45:39.162Z,21.30
2019-06-20T17:48:05.328Z,21.24
2019-06-20T17:50:31.490Z,21.17
2019-06-20T17:52:57.496Z,21.05
2019-06-20T17:55:23.602Z,20.96
2019-06-20T17:57:49.723Z,20.97
2019-06-20T18:00:18.540Z,21.05
2019-06-20T18:02:44.649Z,21.06
2019-06-20T18:05:11.951Z,21.02
2019-06-20T18:07:38.064Z,21.01
2019-06-20T18:10:04.790Z,21.02
2019-06-20T18:12:30.950Z,21.07
2019-06-20T18:14:57.195Z,21.08
2019-06-20T18:17:23.333Z,21.07
2019-06-20T18:19:49.391Z,21.08
2019-06-20T18:22:15.403Z,21.11
2019-06-20T18:24:41.607Z,21.14
2019-06-20T18:27:07.718Z,21.15
2019-06-20T18:29:33.824Z,21.12
2019-06-20T18:32:00.008Z,21.14
2019-06-20T18:34:29.961Z,21.18
2019-06-20T18:36:54.093Z,21.18
2019-06-20T18:39:20.199Z,21.17
2019-06-20T18:41:47.500Z,21.16
2019-06-20T18:44:13.754Z,21.14
2019-06-20T18:46:39.907Z,21.11
2019-06-20T18:49:06.055Z,21.09
2019-06-20T18:51:32.208Z,21.06
2019-06-20T18:53:58.361Z,21.02
2019-06-20T18:56:24.263Z,21.02
2019-06-20T18:58:50.312Z,20.98
2019-06-20T19:01:16.437Z,20.96
2019-06-20T19:03:42.582Z,20.96
2019-06-20T19:06:08.695Z,20.94
2019-06-20T19:08:34.734Z,20.92
2019-06-20T19:11:00.850Z,20.87
2019-06-20T19:13:26.970Z,20.77
2019-06-20T19:15:53.080Z,20.78
2019-06-20T19:18:22.753Z,20.80
2019-06-20T19:20:47.139Z,20.83
2019-06-20T19:23:13.247Z,20.84
2019-06-20T19:25:39.393Z,20.84
2019-06-20T19:28:05.492Z,20.85
2019-06-20T19:30:35.205Z,20.84
2019-06-20T19:33:01.312Z,20.84
2019-06-20T19:35:27.412Z,20.83
2019-06-20T19:37:53.487Z,20.81
2019-06-20T19:40:23.208Z,20.77
2019-06-20T19:42:49.324Z,20.73
2019-06-20T19:45:15.560Z,20.70
2019-06-20T19:47:41.761Z,20.68
2019-06-20T19:50:09.112Z,20.66
2019-06-20T19:52:35.372Z,20.63
2019-06-20T19:55:01.869Z,20.60
2019-06-20T19:57:27.981Z,20.58
2019-06-20T19:59:54.236Z,20.54
2019-06-20T20:02:20.357Z,20.52
2019-06-20T20:04:46.484Z,20.40
2019-06-20T20:07:12.619Z,20.39
2019-06-20T20:09:38.761Z,20.37
2019-06-20T20:12:04.893Z,20.34
2019-06-20T20:14:30.938Z,20.30
2019-06-20T20:16:57.059Z,20.29
2019-06-20T20:19:23.157Z,20.26
2019-06-20T20:21:49.295Z,20.24
2019-06-20T20:24:15.387Z,20.20
2019-06-20T20:26:41.511Z,20.15
2019-06-20T20:29:07.519Z,20.11
2019-06-20T20:31:33.635Z,20.07
2019-06-20T20:33:59.757Z,20.08
2019-06-20T20:36:25.676Z,20.08
2019-06-20T20:38:51.706Z,20.07
2019-06-20T20:41:17.836Z,20.02
2019-06-20T20:43:44.007Z,19.97
2019-06-20T20:46:10.199Z,19.96
2019-06-20T20:48:36.226Z,19.94
2019-06-20T20:51:02.401Z,19.89
2019-06-20T20:53:28.576Z,19.88
2019-06-20T20:55:54.697Z,19.89
2019-06-20T20:58:20.815Z,19.88
2019-06-20T21:01:15.140Z,19.88
2019-06-20T21:03:41.148Z,19.87
2019-06-20T21:06:07.278Z,19.86
2019-06-20T21:08:33.408Z,19.85
2019-06-20T21:10:59.315Z,19.83
2019-06-20T21:13:25.488Z,19.81
2019-06-20T21:15:51.595Z,19.79
2019-06-20T21:18:17.759Z,19.77
2019-06-20T21:20:44.089Z,19.75
2019-06-20T21:23:10.187Z,19.74
2019-06-20T21:25:37.004Z,19.72
2019-06-20T21:28:03.132Z,19.57
2019-06-20T21:30:29.534Z,19.44
2019-06-20T21:32:55.658Z,19.47
2019-06-20T21:35:21.768Z,19.50
2019-06-20T21:37:47.876Z,19.54
2019-06-20T21:40:15.154Z,19.55
2019-06-20T21:42:41.239Z,19.56
2019-06-20T21:45:08.598Z,19.55
2019-06-20T21:47:34.689Z,19.51
2019-06-20T21:50:00.836Z,19.50
2019-06-20T21:52:26.877Z,19.49
2019-06-20T21:54:52.993Z,19.45
2019-06-20T21:57:19.154Z,19.40
2019-06-20T21:59:45.303Z,19.38
2019-06-20T22:02:11.438Z,19.36
2019-06-20T22:04:37.675Z,19.32
2019-06-20T22:07:03.840Z,19.28
2019-06-20T22:09:30.068Z,19.25
2019-06-20T22:11:56.082Z,19.21
2019-06-20T22:14:22.080Z,19.18
2019-06-20T22:16:48.104Z,19.14
2019-06-20T22:19:14.260Z,19.10
2019-06-20T22:21:40.361Z,19.06
2019-06-20T22:24:06.465Z,19.02
2019-06-20T22:26:32.470Z,19.04
2019-06-20T22:28:58.593Z,19.00
2019-06-20T22:31:24.734Z,18.94
2019-06-20T22:33:50.838Z,18.90
2019-06-20T22:36:17.052Z,18.87
2019-06-20T22:38:43.124Z,18.86
2019-06-20T22:41:09.242Z,18.81
2019-06-20T22:43:35.260Z,18.75
2019-06-20T22:46:01.705Z,18.73
2019-06-20T22:48:27.829Z,18.69
2019-06-20T22:50:53.940Z,18.67
2019-06-20T22:53:20.086Z,18.64
2019-06-20T22:55:46.211Z,18.63
2019-06-20T22:58:12.436Z,18.64
2019-06-20T23:00:38.777Z,18.63
2019-06-20T23:03:04.878Z,18.62
2019-06-20T23:05:30.996Z,18.58
2019-06-20T23:07:57.096Z,18.57
2019-06-20T23:10:25.317Z,18.54
2019-06-20T23:12:51.322Z,18.51
2019-06-20T23:15:17.567Z,18.47
2019-06-20T23:17:43.590Z,18.45
2019-06-20T23:20:10.314Z,18.45
2019-06-20T23:22:36.443Z,18.44
2019-06-20T23:25:07.797Z,18.44
2019-06-20T23:27:33.995Z,18.42
2019-06-20T23:30:00.038Z,18.40
2019-06-20T23:32:26.181Z,18.39
2019-06-20T23:34:52.215Z,18.38
2019-06-20T23:37:18.285Z,18.37
2019-06-20T23:39:44.286Z,18.35
2019-06-20T23:42:10.397Z,18.32
2019-06-20T23:44:36.533Z,18.31
2019-06-20T23:47:02.700Z,18.31
2019-06-20T23:49:28.697Z,18.31
2019-06-20T23:51:56.601Z,18.32
2019-06-20T23:54:22.610Z,18.29
2019-06-20T23:56:48.710Z,18.28
2019-06-20T23:59:14.764Z,18.28
